createdAt,value
2018-07-21T00:00:28.398Z,66.40
2018-07-21T00:02:56.804Z,66.30
2018-07-21T00:05:25.171Z,66.30
2018-07-21T00:07:53.577Z,66.90
2018-07-21T00:10:22.000Z,67.30
2018-07-21T00:12:50.346Z,67.60
2018-07-21T00:15:18.760Z,67.80
2018-07-21T00:17:47.170Z,67.80
2018-07-21T00:20:15.549Z,68.00
2018-07-21T00:22:43.988Z,68.50
2018-07-21T00:25:12.418Z,68.50
2018-07-21T00:27:40.876Z,68.50
2018-07-21T00:30:09.289Z,68.30
2018-07-21T00:32:37.685Z,68.40
2018-07-21T00:35:06.050Z,68.20
2018-07-21T00:37:34.594Z,68.60
2018-07-21T00:40:03.049Z,68.50
2018-07-21T00:42:31.406Z,68.70
2018-07-21T00:44:59.773Z,69.20
2018-07-21T00:47:28.229Z,69.70
2018-07-21T00:49:56.614Z,70.00
2018-07-21T00:52:24.999Z,70.20
2018-07-21T00:54:53.380Z,70.10
2018-07-21T00:57:21.773Z,70.10
2018-07-21T00:59:50.253Z,70.20
2018-07-21T01:02:18.686Z,70.20
2018-07-21T01:04:47.225Z,70.50
2018-07-21T01:07:15.594Z,70.60
2018-07-21T01:09:43.934Z,70.80
2018-07-21T01:12:12.363Z,70.60
2018-07-21T01:14:40.742Z,70.70
2018-07-21T01:17:09.425Z,71.40
2018-07-21T01:19:37.982Z,71.30
2018-07-21T01:22:06.467Z,71.20
2018-07-21T01:24:34.869Z,71.70
2018-07-21T01:27:03.309Z,72.00
2018-07-21T01:29:31.777Z,72.60
2018-07-21T01:32:00.168Z,72.70
2018-07-21T01:34:28.626Z,72.70
2018-07-21T01:36:57.042Z,72.70
2018-07-21T01:39:25.402Z,72.50
2018-07-21T01:41:53.775Z,72.40
2018-07-21T01:44:22.308Z,72.60
2018-07-21T01:46:51.388Z,72.80
2018-07-21T01:49:19.797Z,73.10
2018-07-21T01:54:16.347Z,73.60
2018-07-21T01:56:44.853Z,73.30
2018-07-21T01:59:13.253Z,73.30
2018-07-21T02:01:41.657Z,73.00
2018-07-21T02:04:10.101Z,73.50
2018-07-21T02:06:38.530Z,74.20
2018-07-21T02:09:08.499Z,73.80
2018-07-21T02:11:36.899Z,74.00
2018-07-21T02:14:05.373Z,74.40
2018-07-21T02:16:33.777Z,74.40
2018-07-21T02:19:02.148Z,74.20
2018-07-21T02:21:30.728Z,74.10
2018-07-21T02:23:59.242Z,74.00
2018-07-21T02:26:27.633Z,74.10
2018-07-21T02:28:56.075Z,74.10
2018-07-21T02:31:24.463Z,74.20
2018-07-21T02:33:52.850Z,73.30
2018-07-21T02:36:21.272Z,72.90
2018-07-21T02:38:49.621Z,72.90
2018-07-21T02:41:18.220Z,73.10
2018-07-21T02:43:46.613Z,73.00
2018-07-21T02:46:15.069Z,73.20
2018-07-21T02:48:43.486Z,73.40
2018-07-21T02:51:11.913Z,73.70
2018-07-21T02:53:40.318Z,74.70
2018-07-21T02:56:08.949Z,75.30
2018-07-21T02:58:37.338Z,74.60
2018-07-21T03:01:05.778Z,75.00
2018-07-21T03:03:34.243Z,75.00
2018-07-21T03:06:02.626Z,74.70
2018-07-21T03:08:31.137Z,74.10
2018-07-21T03:10:59.602Z,73.80
2018-07-21T03:13:28.049Z,74.00
2018-07-21T03:15:56.402Z,74.10
2018-07-21T03:18:24.878Z,74.60
2018-07-21T03:20:53.463Z,74.80
2018-07-21T03:23:21.885Z,74.40
2018-07-21T03:25:50.256Z,74.40
2018-07-21T03:28:18.623Z,74.60
2018-07-21T03:30:46.998Z,74.00
2018-07-21T03:33:15.365Z,73.70
2018-07-21T03:35:43.773Z,73.60
2018-07-21T03:38:12.321Z,73.60
2018-07-21T03:40:40.678Z,73.80
2018-07-21T03:43:09.070Z,73.50
2018-07-21T03:45:37.420Z,73.30
2018-07-21T03:50:33.966Z,73.80
2018-07-21T03:53:03.626Z,74.00
2018-07-21T03:55:32.030Z,73.80
2018-07-21T03:58:00.396Z,74.00
2018-07-21T04:00:28.795Z,73.90
2018-07-21T04:02:57.387Z,74.40
2018-07-21T04:05:25.720Z,74.50
2018-07-21T04:07:54.101Z,75.30
2018-07-21T04:10:22.540Z,75.70
2018-07-21T04:12:50.902Z,75.60
2018-07-21T04:15:19.306Z,75.60
2018-07-21T04:17:47.685Z,75.40
2018-07-21T04:20:16.030Z,74.80
2018-07-21T04:22:44.671Z,74.80
2018-07-21T04:25:13.033Z,74.80
2018-07-21T04:27:41.423Z,74.70
2018-07-21T04:30:09.829Z,75.00
2018-07-21T04:32:38.201Z,75.10
2018-07-21T04:35:06.660Z,74.60
2018-07-21T04:37:35.040Z,74.30
2018-07-21T04:40:03.590Z,73.80
2018-07-21T04:42:31.977Z,73.60
2018-07-21T04:45:00.366Z,73.20
2018-07-21T04:47:28.719Z,72.90
2018-07-21T04:49:57.166Z,72.10
2018-07-21T04:52:25.542Z,72.10
2018-07-21T04:54:53.970Z,71.80
2018-07-21T04:57:22.354Z,71.50
2018-07-21T04:59:50.737Z,70.30
2018-07-21T05:02:19.123Z,69.30
2018-07-21T05:04:47.505Z,69.30
2018-07-21T05:07:15.922Z,68.80
2018-07-21T05:09:44.349Z,67.80
2018-07-21T05:12:12.726Z,67.70
2018-07-21T05:14:41.150Z,67.30
2018-07-21T05:17:09.498Z,67.20
2018-07-21T05:19:37.857Z,66.60
2018-07-21T05:22:06.545Z,67.10
2018-07-21T05:24:34.926Z,67.40
2018-07-21T05:27:03.304Z,67.70
2018-07-21T05:29:31.725Z,67.30
2018-07-21T05:32:00.131Z,66.70
2018-07-21T05:34:28.513Z,67.40
2018-07-21T05:36:56.884Z,67.60
2018-07-21T05:39:25.304Z,67.30
2018-07-21T05:41:53.661Z,67.60
2018-07-21T05:44:22.059Z,67.80
2018-07-21T05:46:50.457Z,66.40
2018-07-21T05:49:18.839Z,64.90
2018-07-21T05:54:15.350Z,63.80
2018-07-21T05:56:43.736Z,63.20
2018-07-21T05:59:12.195Z,62.60
2018-07-21T06:01:40.568Z,62.20
2018-07-21T06:04:09.285Z,61.30
2018-07-21T06:06:37.679Z,61.30
2018-07-21T06:09:07.943Z,60.60
2018-07-21T06:11:36.409Z,60.20
2018-07-21T06:14:04.847Z,59.90
2018-07-21T06:16:33.266Z,59.50
2018-07-21T06:19:01.649Z,59.80
2018-07-21T06:21:30.294Z,59.50
2018-07-21T06:23:58.837Z,59.10
2018-07-21T06:26:27.217Z,58.50
2018-07-21T06:28:55.601Z,59.00
2018-07-21T06:31:23.989Z,58.20
2018-07-21T06:33:52.491Z,56.70
2018-07-21T06:36:21.141Z,56.80
2018-07-21T06:38:49.525Z,56.80
2018-07-21T06:41:17.908Z,56.20
2018-07-21T06:43:46.340Z,56.80
2018-07-21T06:46:14.742Z,56.50
2018-07-21T06:48:43.113Z,56.50
2018-07-21T06:51:11.622Z,55.40
2018-07-21T06:53:39.978Z,55.60
2018-07-21T06:56:08.366Z,55.70
2018-07-21T06:58:36.725Z,56.00
2018-07-21T07:01:05.268Z,55.20
2018-07-21T07:03:33.820Z,55.20
2018-07-21T07:06:02.193Z,55.10
2018-07-21T07:08:30.588Z,54.40
2018-07-21T07:10:58.958Z,54.10
2018-07-21T07:13:27.307Z,52.90
2018-07-21T07:15:55.690Z,53.10
2018-07-21T07:18:24.057Z,53.10
2018-07-21T07:20:52.460Z,53.30
2018-07-21T07:23:20.865Z,53.40
2018-07-21T07:25:49.318Z,53.10
2018-07-21T07:30:45.853Z,53.30
2018-07-21T07:33:14.264Z,53.60
2018-07-21T07:35:42.645Z,52.80
2018-07-21T07:38:11.004Z,53.50
2018-07-21T07:40:39.376Z,52.70
2018-07-21T07:43:08.306Z,52.90
2018-07-21T07:45:36.934Z,52.00
2018-07-21T07:48:05.346Z,51.90
2018-07-21T07:50:33.786Z,52.00
2018-07-21T07:53:02.174Z,51.70
2018-07-21T07:55:32.762Z,51.00
2018-07-21T07:58:04.154Z,51.20
2018-07-21T08:00:32.702Z,51.50
2018-07-21T08:03:02.191Z,51.40
2018-07-21T08:15:01.920Z,50.80
2018-07-21T08:17:30.438Z,51.00
2018-07-21T08:19:58.794Z,50.50
2018-07-21T08:22:27.230Z,49.60
2018-07-21T08:24:55.697Z,49.20
2018-07-21T08:27:24.099Z,49.50
2018-07-21T08:29:52.541Z,49.70
2018-07-21T08:32:20.934Z,49.20
2018-07-21T08:34:49.347Z,47.10
2018-07-21T08:37:17.707Z,46.80
2018-07-21T08:39:46.090Z,46.60
2018-07-21T08:42:14.506Z,46.10
2018-07-21T08:44:42.964Z,45.40
2018-07-21T08:47:11.634Z,45.20
2018-07-21T08:49:40.235Z,44.10
2018-07-21T08:52:08.690Z,44.00
2018-07-21T08:54:37.554Z,42.80
2018-07-21T08:57:06.058Z,43.90
2018-07-21T08:59:34.424Z,44.20
2018-07-21T09:02:03.000Z,44.70
2018-07-21T09:04:32.361Z,43.70
2018-07-21T09:07:01.418Z,43.70
2018-07-21T09:09:29.760Z,43.60
2018-07-21T09:11:58.141Z,43.10
2018-07-21T09:14:26.575Z,44.20
2018-07-21T09:16:54.959Z,42.20
2018-07-21T09:19:23.401Z,41.50
2018-07-21T09:21:51.806Z,42.50
2018-07-21T09:24:20.191Z,42.60
2018-07-21T09:26:48.793Z,42.50
2018-07-21T09:29:17.259Z,43.50
2018-07-21T09:31:45.647Z,43.10
2018-07-21T09:34:14.129Z,43.70
2018-07-21T09:36:42.577Z,43.90
2018-07-21T09:39:11.717Z,45.00
2018-07-21T09:41:40.278Z,45.90
2018-07-21T09:44:08.689Z,46.30
2018-07-21T09:46:37.073Z,46.20
2018-07-21T09:49:05.521Z,44.90
2018-07-21T09:51:33.982Z,44.80
2018-07-21T09:54:02.353Z,44.00
2018-07-21T09:56:30.717Z,44.50
2018-07-21T09:58:59.098Z,44.10
2018-07-21T10:01:27.480Z,44.30
2018-07-21T10:03:55.836Z,43.70
2018-07-21T10:06:24.193Z,44.50
2018-07-21T10:08:52.551Z,44.40
2018-07-21T10:11:20.949Z,44.80
2018-07-21T10:13:49.303Z,44.30
2018-07-21T10:16:17.753Z,43.00
2018-07-21T10:21:14.271Z,42.80
2018-07-21T10:23:42.630Z,42.90
2018-07-21T10:26:16.442Z,42.40
2018-07-21T10:28:50.269Z,42.80
2018-07-21T10:31:18.919Z,42.20
2018-07-21T10:33:47.266Z,41.80
2018-07-21T10:36:15.662Z,42.40
2018-07-21T10:38:44.042Z,42.20
2018-07-21T10:41:12.397Z,43.30
2018-07-21T10:43:40.803Z,42.80
2018-07-21T10:46:09.150Z,43.10
2018-07-21T10:48:37.514Z,43.30
2018-07-21T10:51:05.928Z,43.20
2018-07-21T10:53:34.305Z,43.50
2018-07-21T10:56:02.641Z,42.40
2018-07-21T10:58:31.020Z,44.00
2018-07-21T11:00:59.389Z,46.90
2018-07-21T11:03:27.757Z,43.90
2018-07-21T11:05:56.130Z,43.90
2018-07-21T11:08:24.587Z,46.20
2018-07-21T11:10:52.970Z,46.40
2018-07-21T11:13:21.341Z,45.30
2018-07-21T11:15:49.733Z,45.20
2018-07-21T11:18:18.107Z,44.80
2018-07-21T11:20:46.457Z,43.40
2018-07-21T11:23:14.858Z,44.10
2018-07-21T11:25:43.226Z,43.10
2018-07-21T11:28:11.602Z,42.20
2018-07-21T11:30:39.977Z,43.80
2018-07-21T11:33:08.325Z,44.80
2018-07-21T11:35:36.865Z,45.00
2018-07-21T11:38:05.134Z,42.10
2018-07-21T11:40:33.481Z,42.10
2018-07-21T11:43:01.870Z,42.60
2018-07-21T11:45:30.205Z,41.90
2018-07-21T11:47:58.558Z,43.50
2018-07-21T11:50:26.934Z,43.50
2018-07-21T11:52:55.286Z,42.50
2018-07-21T11:55:23.728Z,43.40
2018-07-21T11:57:52.110Z,43.80
2018-07-21T12:00:20.467Z,42.00
2018-07-21T12:02:48.881Z,42.20
2018-07-21T12:05:17.320Z,42.80
2018-07-21T12:07:45.706Z,42.30
2018-07-21T12:10:14.084Z,42.80
2018-07-21T12:12:42.426Z,42.50
2018-07-21T12:15:10.835Z,42.30
2018-07-21T12:17:39.224Z,41.80
2018-07-21T12:20:07.618Z,42.60
2018-07-21T12:22:35.959Z,41.90
2018-07-21T12:25:04.457Z,41.40
2018-07-21T12:27:32.829Z,41.60
2018-07-21T12:30:01.350Z,40.80
2018-07-21T12:32:29.745Z,41.00
2018-07-21T12:34:58.158Z,41.00
2018-07-21T12:39:54.648Z,41.30
2018-07-21T12:42:23.039Z,41.10
2018-07-21T12:44:51.474Z,42.00
2018-07-21T12:47:19.870Z,41.10
2018-07-21T12:49:48.201Z,41.10
2018-07-21T12:52:16.561Z,40.50
2018-07-21T12:54:44.957Z,40.30
2018-07-21T12:57:13.304Z,40.50
2018-07-21T12:59:41.690Z,40.10
2018-07-21T13:02:10.082Z,40.10
2018-07-21T13:04:38.489Z,40.20
2018-07-21T13:07:06.860Z,40.00
2018-07-21T13:09:35.240Z,39.90
2018-07-21T13:12:03.662Z,40.20
2018-07-21T13:14:32.030Z,39.80
2018-07-21T13:17:00.407Z,40.20
2018-07-21T13:19:28.760Z,39.80
2018-07-21T13:21:57.110Z,39.80
2018-07-21T13:24:25.515Z,39.60
2018-07-21T13:26:53.893Z,39.90
2018-07-21T13:29:22.345Z,39.70
2018-07-21T13:31:50.746Z,39.80
2018-07-21T13:34:19.121Z,39.40
2018-07-21T13:36:47.658Z,39.60
2018-07-21T13:39:16.059Z,39.40
2018-07-21T13:41:44.414Z,39.40
2018-07-21T13:44:12.811Z,39.40
2018-07-21T13:46:41.182Z,39.40
2018-07-21T13:49:09.565Z,39.80
2018-07-21T13:51:37.977Z,40.00
2018-07-21T13:54:06.350Z,40.00
2018-07-21T13:56:34.745Z,40.20
2018-07-21T13:59:03.127Z,40.10
2018-07-21T14:01:31.482Z,39.90
2018-07-21T14:03:59.882Z,40.00
2018-07-21T14:06:28.226Z,40.30
2018-07-21T14:08:56.608Z,40.30
2018-07-21T14:11:25.009Z,40.40
2018-07-21T14:13:53.421Z,40.50
2018-07-21T14:16:21.798Z,40.60
2018-07-21T14:18:50.194Z,40.30
2018-07-21T14:21:18.590Z,40.40
2018-07-21T14:23:46.986Z,40.60
2018-07-21T14:26:15.414Z,40.30
2018-07-21T14:28:43.795Z,40.20
2018-07-21T14:31:12.262Z,40.40
2018-07-21T14:33:40.628Z,40.30
2018-07-21T14:36:09.056Z,40.30
2018-07-21T14:41:05.601Z,40.30
2018-07-21T14:46:02.104Z,40.90
2018-07-21T14:48:30.465Z,40.50
2018-07-21T14:50:58.873Z,40.60
2018-07-21T14:53:27.209Z,40.20
2018-07-21T14:55:55.606Z,40.40
2018-07-21T14:58:23.953Z,40.50
2018-07-21T15:00:52.406Z,40.60
2018-07-21T15:03:20.786Z,41.00
2018-07-21T15:05:49.154Z,41.60
2018-07-21T15:08:17.622Z,42.00
2018-07-21T15:10:46.014Z,42.10
2018-07-21T15:13:14.389Z,42.10
2018-07-21T15:15:42.769Z,42.30
2018-07-21T15:18:11.170Z,42.50
2018-07-21T15:20:39.560Z,42.40
2018-07-21T15:23:07.982Z,42.50
2018-07-21T15:25:36.372Z,42.60
2018-07-21T15:28:04.763Z,42.50
2018-07-21T15:30:33.141Z,42.60
2018-07-21T15:33:01.690Z,42.70
2018-07-21T15:35:30.059Z,42.70
2018-07-21T15:37:58.548Z,43.00
2018-07-21T15:40:27.051Z,43.00
2018-07-21T15:42:55.452Z,43.00
2018-07-21T15:45:23.823Z,42.90
2018-07-21T15:47:52.273Z,42.80
2018-07-21T15:50:20.608Z,43.10
2018-07-21T15:52:49.062Z,43.20
2018-07-21T15:55:18.446Z,43.40
2018-07-21T15:57:46.825Z,43.70
2018-07-21T16:00:15.228Z,43.70
2018-07-21T16:02:43.648Z,44.00
2018-07-21T16:05:12.469Z,44.20
2018-07-21T16:07:40.997Z,43.80
2018-07-21T16:10:11.176Z,44.40
2018-07-21T16:12:39.869Z,44.50
2018-07-21T16:15:08.636Z,44.60
2018-07-21T16:17:37.195Z,44.80
2018-07-21T16:20:05.855Z,44.70
2018-07-21T16:22:34.581Z,44.60
2018-07-21T16:25:02.942Z,44.80
2018-07-21T16:27:31.298Z,44.70
2018-07-21T16:29:59.670Z,44.50
2018-07-21T16:32:28.075Z,44.60
2018-07-21T16:34:56.505Z,44.60
2018-07-21T16:37:24.851Z,44.40
2018-07-21T16:39:53.270Z,44.40
2018-07-21T16:42:21.647Z,44.50
2018-07-21T16:44:49.991Z,44.60
2018-07-21T16:47:18.428Z,44.60
2018-07-21T16:49:46.893Z,44.20
2018-07-21T16:52:15.241Z,44.30
2018-07-21T16:54:44.145Z,44.10
2018-07-21T16:57:12.529Z,44.20
2018-07-21T16:59:40.917Z,44.20
2018-07-21T17:02:09.310Z,44.40
2018-07-21T17:04:37.814Z,44.40
2018-07-21T17:07:06.186Z,44.20
2018-07-21T17:09:34.590Z,44.30
2018-07-21T17:12:03.030Z,44.30
2018-07-21T17:14:31.440Z,44.30
2018-07-21T17:16:59.865Z,44.30
2018-07-21T17:19:28.242Z,45.20
2018-07-21T17:21:56.712Z,44.50
2018-07-21T17:24:25.110Z,44.50
2018-07-21T17:26:53.920Z,44.80
2018-07-21T17:29:22.506Z,44.90
2018-07-21T17:31:50.817Z,44.90
2018-07-21T17:36:47.397Z,45.50
2018-07-21T17:39:15.824Z,45.00
2018-07-21T17:41:44.182Z,45.00
2018-07-21T17:44:12.565Z,45.20
2018-07-21T17:46:41.077Z,45.40
2018-07-21T17:49:09.480Z,45.40
2018-07-21T17:51:37.903Z,45.70
2018-07-21T17:54:06.294Z,45.60
2018-07-21T17:56:34.670Z,45.90
2018-07-21T17:59:03.041Z,46.00
2018-07-21T18:01:31.426Z,46.10
2018-07-21T18:03:59.794Z,46.20
2018-07-21T18:06:28.274Z,46.40
2018-07-21T18:08:56.738Z,46.50
2018-07-21T18:11:25.174Z,46.70
2018-07-21T18:13:53.550Z,46.60
2018-07-21T18:16:21.953Z,46.80
2018-07-21T18:25:01.978Z,46.70
2018-07-21T18:27:30.346Z,46.60
2018-07-21T18:29:58.765Z,47.00
2018-07-21T18:32:27.374Z,47.20
2018-07-21T18:34:55.749Z,47.50
2018-07-21T18:37:24.153Z,47.80
2018-07-21T18:39:52.649Z,47.60
2018-07-21T18:42:21.083Z,47.60
2018-07-21T18:44:49.585Z,47.60
2018-07-21T18:47:18.010Z,47.70
2018-07-21T18:49:46.382Z,48.10
2018-07-21T18:52:14.779Z,48.20
2018-07-21T18:54:43.337Z,48.30
2018-07-21T18:57:11.881Z,48.60
2018-07-21T18:59:40.307Z,48.60
2018-07-21T19:02:08.684Z,49.60
2018-07-21T19:04:37.736Z,49.00
2018-07-21T19:07:06.091Z,49.20
2018-07-21T19:09:34.461Z,49.30
2018-07-21T19:12:08.324Z,49.40
2018-07-21T19:14:36.777Z,49.80
2018-07-21T19:17:05.160Z,49.70
2018-07-21T19:19:38.974Z,49.80
2018-07-21T19:22:07.370Z,49.60
2018-07-21T19:24:35.801Z,50.00
2018-07-21T19:27:09.635Z,51.40
2018-07-21T19:29:38.038Z,52.60
2018-07-21T19:32:11.820Z,50.80
2018-07-21T19:34:40.280Z,50.90
2018-07-21T19:37:14.110Z,51.00
2018-07-21T19:39:42.703Z,51.10
2018-07-21T19:42:11.147Z,51.60
2018-07-21T19:44:39.518Z,51.70
2018-07-21T19:47:07.941Z,51.90
2018-07-21T19:49:36.937Z,51.40
2018-07-21T19:52:05.385Z,51.60
2018-07-21T19:54:33.922Z,52.10
2018-07-21T19:57:02.330Z,51.60
2018-07-21T19:59:30.683Z,51.80
2018-07-21T20:01:59.094Z,51.90
2018-07-21T20:04:27.594Z,52.20
2018-07-21T20:06:56.240Z,52.40
2018-07-21T20:09:24.684Z,52.60
2018-07-21T20:11:53.086Z,52.60
2018-07-21T20:14:21.490Z,52.90
2018-07-21T20:16:49.897Z,53.80
2018-07-21T20:19:18.301Z,53.20
2018-07-21T20:21:46.650Z,53.20
2018-07-21T20:24:15.208Z,53.70
2018-07-21T20:26:43.594Z,53.80
2018-07-21T20:29:11.964Z,53.60
2018-07-21T20:31:40.316Z,54.10
2018-07-21T20:34:08.817Z,54.40
2018-07-21T20:36:37.185Z,54.30
2018-07-21T20:41:35.035Z,54.00
2018-07-21T20:44:03.480Z,54.10
2018-07-21T20:46:31.893Z,54.40
2018-07-21T20:49:00.297Z,54.30
2018-07-21T20:51:28.671Z,54.60
2018-07-21T20:53:57.073Z,56.00
2018-07-21T20:56:25.450Z,55.20
2018-07-21T20:58:53.910Z,55.30
2018-07-21T21:01:22.301Z,55.60
2018-07-21T21:06:18.858Z,56.10
2018-07-21T21:08:47.241Z,56.00
2018-07-21T21:11:15.585Z,55.80
2018-07-21T21:13:43.986Z,56.40
2018-07-21T21:16:12.366Z,56.50
2018-07-21T21:18:40.751Z,56.40
2018-07-21T21:21:09.175Z,55.70
2018-07-21T21:23:37.577Z,55.90
2018-07-21T21:26:05.958Z,55.90
2018-07-21T21:28:34.450Z,56.00
2018-07-21T21:31:02.877Z,56.10
2018-07-21T21:33:31.265Z,56.20
2018-07-21T21:35:59.650Z,56.50
2018-07-21T21:38:28.017Z,57.00
2018-07-21T21:40:56.382Z,57.30
2018-07-21T21:43:24.918Z,57.40
2018-07-21T21:45:53.426Z,57.50
2018-07-21T21:48:21.943Z,57.50
2018-07-21T21:50:50.349Z,57.10
2018-07-21T21:53:18.708Z,57.70
2018-07-21T21:55:47.115Z,58.10
2018-07-21T21:58:15.478Z,58.10
2018-07-21T22:00:59.619Z,58.20
2018-07-21T22:03:29.786Z,58.30
2018-07-21T22:05:58.853Z,58.90
2018-07-21T22:08:27.306Z,58.20
2018-07-21T22:10:55.690Z,58.00
2018-07-21T22:13:24.230Z,58.20
2018-07-21T22:15:52.647Z,58.70
2018-07-21T22:18:21.232Z,58.40
2018-07-21T22:20:49.697Z,59.00
2018-07-21T22:23:18.111Z,59.10
2018-07-21T22:25:46.589Z,58.80
2018-07-21T22:28:15.001Z,59.00
2018-07-21T22:30:43.359Z,58.70
2018-07-21T22:33:11.941Z,58.70
2018-07-21T22:35:40.539Z,58.70
2018-07-21T22:38:08.929Z,59.10
2018-07-21T22:40:37.300Z,59.30
2018-07-21T22:43:05.776Z,59.40
2018-07-21T22:45:34.197Z,60.10
2018-07-21T22:48:02.606Z,60.30
2018-07-21T22:50:30.992Z,60.20
2018-07-21T22:52:59.357Z,59.90
2018-07-21T22:55:27.812Z,60.60
2018-07-21T22:57:56.184Z,60.60
2018-07-21T23:00:24.575Z,63.00
2018-07-21T23:02:53.026Z,61.70
2018-07-21T23:05:21.433Z,62.10
2018-07-21T23:07:49.781Z,62.50
2018-07-21T23:10:18.253Z,63.20
2018-07-21T23:12:46.678Z,63.20
2018-07-21T23:15:15.157Z,64.00
2018-07-21T23:20:11.691Z,64.60
2018-07-21T23:22:40.091Z,64.70
2018-07-21T23:25:08.443Z,64.80
2018-07-21T23:27:36.822Z,65.70
2018-07-21T23:30:05.388Z,65.60
2018-07-21T23:32:33.875Z,65.90
2018-07-21T23:35:02.250Z,65.60
2018-07-21T23:37:31.070Z,66.10
2018-07-21T23:39:59.486Z,65.00
2018-07-21T23:42:27.930Z,65.70
2018-07-21T23:44:56.313Z,64.80
2018-07-21T23:47:24.687Z,64.90
2018-07-21T23:49:53.126Z,65.30
2018-07-21T23:52:21.493Z,65.50
2018-07-21T23:54:49.867Z,65.90
2018-07-21T23:57:18.277Z,66.30
2018-07-21T23:59:46.639Z,66.70
